Time;durP1;ratioP1;P1;durP2;ratioP2;P2;SDS_P1;SDS_P2;PMS_P1;PMS_P2;Temp;Humidity;BMP_temperature;BMP_pressure;BME280_temperature;BME280_humidity;BME280_pressure;Samples;Min_cycle;Max_cycle;Signal;HPM_P1;HPM_P2
2022/06/29 00:02:36;;;;;;;8.00;4.68;;;;;;;22.37;100.00;101142.13;5098113;28;20038;-75
2022/06/29 00:05:25;;;;;;;5.82;4.57;;;;;;;22.35;100.00;101146.72;5099365;28;20039;-75
2022/06/29 00:08:11;;;;;;;5.32;4.63;;;;;;;22.74;100.00;101147.03;5098318;28;20574;-76
2022/06/29 00:10:59;;;;;;;5.82;4.82;;;;;;;22.51;100.00;101145.75;5099048;28;20035;-75
2022/06/29 00:13:45;;;;;;;9.07;4.80;;;;;;;22.63;100.00;101144.16;5098487;28;20115;-76
2022/06/29 00:16:31;;;;;;;7.10;5.10;;;;;;;22.76;100.00;101138.00;5098481;28;20024;-75
2022/06/29 00:19:17;;;;;;;7.88;5.30;;;;;;;22.54;100.00;101139.34;5098583;28;20104;-75
2022/06/29 00:22:03;;;;;;;8.25;5.43;;;;;;;22.70;100.00;101138.34;5098895;28;20016;-74
2022/06/29 00:24:49;;;;;;;6.57;5.40;;;;;;;22.63;100.00;101149.50;5083395;28;20032;-76
2022/06/29 00:27:35;;;;;;;8.27;5.40;;;;;;;22.53;100.00;101145.66;5084012;28;20029;-74
2022/06/29 00:30:21;;;;;;;8.02;5.47;;;;;;;22.76;100.00;101146.00;5082465;28;20088;-74
2022/06/29 00:33:07;;;;;;;7.32;5.20;;;;;;;22.45;100.00;101130.06;5097891;28;20516;-75
2022/06/29 00:35:53;;;;;;;8.55;5.72;;;;;;;22.24;100.00;101135.81;5098782;28;20066;-75
2022/06/29 00:38:39;;;;;;;6.65;5.50;;;;;;;22.23;100.00;101131.44;5083363;28;20028;-75
2022/06/29 00:41:25;;;;;;;7.07;5.93;;;;;;;22.45;100.00;101130.06;5083151;28;20031;-74
2022/06/29 00:44:18;;;;;;;10.40;5.82;;;;;;;22.33;100.00;101129.91;5096404;28;20031;-75
2022/06/29 00:47:05;;;;;;;7.43;5.90;;;;;;;22.25;100.00;101138.41;5098861;28;20540;-75
2022/06/29 00:49:51;;;;;;;8.82;5.72;;;;;;;22.43;100.00;101139.13;5098149;28;20032;-75
2022/06/29 00:52:41;;;;;;;6.93;5.95;;;;;;;22.07;100.00;101134.13;5098707;28;20028;-75
2022/06/29 00:55:30;;;;;;;7.55;6.07;;;;;;;22.30;100.00;101136.31;5097746;28;20031;-74
2022/06/29 00:58:20;;;;;;;8.00;5.90;;;;;;;22.38;100.00;101118.03;5083787;28;20440;-76
2022/06/29 01:01:07;;;;;;;10.18;6.30;;;;;;;22.20;100.00;101118.25;5099440;28;20027;-75
2022/06/29 01:03:53;;;;;;;6.78;5.72;;;;;;;22.40;100.00;101115.28;5084737;28;20051;-75
2022/06/29 01:06:39;;;;;;;7.40;5.88;;;;;;;22.12;100.00;101110.72;5108173;28;20039;-75
2022/06/29 01:09:25;;;;;;;8.43;6.72;;;;;;;22.08;100.00;101109.16;5095774;28;20521;-75
2022/06/29 01:12:12;;;;;;;8.07;6.30;;;;;;;21.98;100.00;101113.31;5108531;28;20073;-75
2022/06/29 01:14:58;;;;;;;9.60;6.70;;;;;;;22.19;100.00;101112.03;5109210;28;20024;-75
2022/06/29 01:17:44;;;;;;;11.38;6.70;;;;;;;22.05;100.00;101106.69;5111145;28;20100;-76
2022/06/29 01:20:30;;;;;;;8.40;7.13;;;;;;;22.12;100.00;101100.03;5095241;28;20055;-75
2022/06/29 01:23:16;;;;;;;8.85;6.82;;;;;;;22.14;100.00;101099.94;5111902;28;20008;-75
2022/06/29 01:26:07;;;;;;;10.70;7.00;;;;;;;22.29;100.00;101102.56;5104529;28;20055;-75
2022/06/29 01:28:53;;;;;;;9.60;7.53;;;;;;;22.29;100.00;101097.22;5113738;28;20107;-74
2022/06/29 01:31:39;;;;;;;11.55;8.07;;;;;;;21.88;100.00;101095.25;5092267;28;20035;-74
2022/06/29 01:34:26;;;;;;;11.75;7.60;;;;;;;21.99;100.00;101101.69;5092743;28;20016;-75
2022/06/29 01:37:12;;;;;;;12.25;8.48;;;;;;;21.85;100.00;101114.97;5091820;28;20026;-75
2022/06/29 01:39:58;;;;;;;11.23;8.07;;;;;;;21.77;100.00;101111.00;5106326;28;20024;-75
2022/06/29 01:42:44;;;;;;;8.35;7.50;;;;;;;22.05;100.00;101113.81;5103581;28;20114;-74
2022/06/29 01:45:29;;;;;;;10.40;7.68;;;;;;;21.75;100.00;101116.47;5083335;28;20028;-74
2022/06/29 01:48:16;;;;;;;12.18;8.05;;;;;;;21.79;100.00;101099.31;5097074;28;20024;-74
2022/06/29 01:51:02;;;;;;;9.48;8.07;;;;;;;22.04;100.00;101101.41;5096944;28;20020;-76
2022/06/29 01:53:48;;;;;;;11.25;7.97;;;;;;;22.03;100.00;101099.72;5096974;28;20031;-74
2022/06/29 01:56:34;;;;;;;9.13;7.88;;;;;;;21.88;100.00;101106.81;5080527;28;20032;-74
2022/06/29 01:59:20;;;;;;;9.68;8.70;;;;;;;21.94;100.00;101105.59;5096294;28;20028;-76
2022/06/29 02:02:07;;;;;;;10.00;8.93;;;;;;;21.84;100.00;101101.72;5096190;28;20024;-75
2022/06/29 02:04:53;;;;;;;9.93;8.75;;;;;;;22.04;100.00;101114.75;5095456;28;20044;-75
2022/06/29 02:07:39;;;;;;;10.38;8.50;;;;;;;21.83;100.00;101110.69;5095155;28;20024;-75
2022/06/29 02:10:25;;;;;;;10.00;8.80;;;;;;;21.72;100.00;101116.63;5080761;28;20107;-74
2022/06/29 02:13:11;;;;;;;9.75;8.57;;;;;;;21.78;100.00;101118.94;5094933;28;20036;-76
2022/06/29 02:15:57;;;;;;;9.98;8.35;;;;;;;22.05;100.00;101112.00;5096169;28;20045;-77
2022/06/29 02:18:43;;;;;;;9.95;8.95;;;;;;;21.79;100.00;101112.63;5096167;28;20020;-75
2022/06/29 02:21:29;;;;;;;10.65;9.55;;;;;;;21.94;100.00;101121.59;5095867;28;20028;-76
2022/06/29 02:24:15;;;;;;;10.88;9.10;;;;;;;21.96;100.00;101117.88;5081089;28;20034;-73
2022/06/29 02:27:04;;;;;;;11.18;9.98;;;;;;;21.82;100.00;101127.63;5095795;28;20016;-73
2022/06/29 02:29:50;;;;;;;10.40;9.40;;;;;;;21.94;100.00;101138.44;5096203;28;20024;-73
2022/06/29 02:35:40;;;;;;;14.68;10.60;;;;;;;21.64;100.00;101145.50;5095199;28;20052;-73
2022/06/29 02:38:26;;;;;;;12.07;10.18;;;;;;;21.91;100.00;101129.78;5095726;28;20028;-74
2022/06/29 02:41:12;;;;;;;11.57;10.40;;;;;;;21.65;100.00;101141.88;5095196;28;20112;-75
2022/06/29 02:43:58;;;;;;;11.77;10.48;;;;;;;21.77;100.00;101133.22;5094371;28;20021;-75
2022/06/29 02:46:44;;;;;;;15.60;11.68;;;;;;;21.71;100.00;101136.25;5094228;28;20020;-75
2022/06/29 02:49:29;;;;;;;18.45;11.60;;;;;;;21.46;100.00;101143.00;5095117;28;20024;-76
2022/06/29 02:52:15;;;;;;;15.20;10.75;;;;;;;21.73;100.00;101139.69;5094360;28;20019;-75
2022/06/29 02:55:01;;;;;;;14.00;10.88;;;;;;;21.76;100.00;101136.84;5095757;28;20020;-75
2022/06/29 02:57:50;;;;;;;14.05;11.13;;;;;;;21.67;100.00;101137.34;5095985;28;20089;-75
2022/06/29 03:00:35;;;;;;;12.68;10.68;;;;;;;21.64;100.00;101133.97;5080313;28;20032;-75
2022/06/29 03:03:21;;;;;;;12.95;11.60;;;;;;;21.80;100.00;101133.06;5095379;28;20480;-75
2022/06/29 03:06:07;;;;;;;12.95;11.65;;;;;;;21.53;100.00;101139.03;5093150;28;20058;-75
2022/06/29 03:08:53;;;;;;;12.90;11.13;;;;;;;21.58;100.00;101150.31;5094856;28;20028;-74
2022/06/29 03:11:39;;;;;;;13.73;11.25;;;;;;;21.47;100.00;101147.38;5094676;28;20446;-75
2022/06/29 03:14:24;;;;;;;15.23;11.40;;;;;;;21.86;100.00;101134.53;5080179;28;20071;-74
2022/06/29 03:17:10;;;;;;;14.43;11.85;;;;;;;21.28;100.00;101136.00;5096552;28;20028;-74
2022/06/29 03:19:56;;;;;;;12.98;11.60;;;;;;;21.63;100.00;101146.47;5096014;28;20100;-73
2022/06/29 03:22:46;;;;;;;13.80;11.18;;;;;;;21.79;100.00;101147.31;5096819;28;20040;-76
2022/06/29 03:25:31;;;;;;;12.10;10.80;;;;;;;21.89;100.00;101145.88;5093653;28;20024;-76
2022/06/29 03:28:17;;;;;;;16.05;11.82;;;;;;;21.92;100.00;101145.69;5094705;28;20051;-74
2022/06/29 03:31:04;;;;;;;15.43;12.00;;;;;;;21.79;100.00;101131.31;5094592;28;20027;-75
2022/06/29 03:33:50;;;;;;;13.15;11.75;;;;;;;21.69;100.00;101132.75;5095422;28;20024;-76
2022/06/29 03:36:35;;;;;;;14.18;12.70;;;;;;;21.89;100.00;101139.66;5096153;28;20020;-74
2022/06/29 03:39:21;;;;;;;12.25;10.95;;;;;;;21.88;100.00;101151.28;5096519;28;20342;-75
2022/06/29 03:42:07;;;;;;;15.57;12.80;;;;;;;21.68;100.00;101157.72;5095317;28;20080;-75
2022/06/29 03:44:54;;;;;;;14.38;11.85;;;;;;;21.93;100.00;101144.75;5095822;28;20384;-76
2022/06/29 03:47:40;;;;;;;13.43;12.00;;;;;;;21.99;100.00;101147.03;5095458;28;20113;-75
2022/06/29 03:50:26;;;;;;;13.05;11.75;;;;;;;21.90;100.00;101142.25;5093960;28;20423;-74
2022/06/29 03:53:11;;;;;;;13.77;11.75;;;;;;;21.85;100.00;101146.13;5096375;28;20016;-75
2022/06/29 03:55:57;;;;;;;14.00;12.27;;;;;;;21.95;100.00;101155.34;5094022;28;20028;-74
2022/06/29 03:58:43;;;;;;;13.85;11.45;;;;;;;21.85;100.00;101155.00;5095010;28;20078;-75
2022/06/29 04:01:29;;;;;;;13.27;11.77;;;;;;;22.05;100.00;101145.84;5094835;28;20368;-75
2022/06/29 04:04:15;;;;;;;14.48;11.38;;;;;;;21.98;100.00;101155.16;5094525;28;20048;-75
2022/06/29 04:07:00;;;;;;;14.38;11.40;;;;;;;22.02;100.00;101152.22;5092834;28;20457;-75
2022/06/29 04:09:46;;;;;;;13.75;12.02;;;;;;;22.01;100.00;101145.16;5094989;28;20024;-75
2022/06/29 04:12:37;;;;;;;14.73;12.32;;;;;;;21.88;100.00;101153.94;5079724;28;20028;-75
2022/06/29 04:15:23;;;;;;;13.70;12.13;;;;;;;22.11;100.00;101157.00;5095068;28;20103;-75
2022/06/29 04:18:08;;;;;;;15.05;12.38;;;;;;;22.12;100.00;101148.09;5079785;28;20072;-75
2022/06/29 04:21:06;;;;;;;15.27;12.40;;;;;;;21.63;100.00;101154.47;5096937;28;20024;-78
2022/06/29 04:23:52;;;;;;;15.68;12.90;;;;;;;21.71;100.00;101152.25;5098221;28;20436;-75
2022/06/29 04:26:38;;;;;;;13.73;12.35;;;;;;;22.12;100.00;101148.09;5097885;28;20035;-76
2022/06/29 04:29:24;;;;;;;18.10;12.77;;;;;;;22.21;100.00;101152.00;5097534;28;20111;-76
2022/06/29 04:32:10;;;;;;;14.93;12.10;;;;;;;22.07;100.00;101152.78;5096368;28;20401;-74
2022/06/29 04:34:56;;;;;;;16.92;13.18;;;;;;;22.01;100.00;101161.19;5097932;28;20024;-75
2022/06/29 04:37:42;;;;;;;14.55;12.70;;;;;;;21.68;100.00;101164.84;5097940;28;20028;-76
2022/06/29 04:40:28;;;;;;;14.27;12.77;;;;;;;21.80;100.00;101170.41;5097743;28;20035;-76
2022/06/29 04:43:13;;;;;;;16.65;12.98;;;;;;;21.41;100.00;101163.72;5098275;28;20032;-75
2022/06/29 04:49:06;;;;;;;14.18;12.65;;;;;;;21.64;100.00;101168.63;5099030;28;20027;-75
2022/06/29 04:51:52;;;;;;;14.07;12.57;;;;;;;21.77;100.00;101169.69;5084862;28;20352;-76
2022/06/29 04:54:39;;;;;;;16.02;13.43;;;;;;;22.15;100.00;101168.38;5098247;28;20085;-75
2022/06/29 04:57:25;;;;;;;14.77;12.57;;;;;;;22.34;100.00;101175.22;5084382;28;20035;-75
2022/06/29 05:00:11;;;;;;;16.30;13.45;;;;;;;22.29;100.00;101179.13;5098094;28;20028;-76
2022/06/29 05:02:57;;;;;;;16.52;13.60;;;;;;;22.43;100.00;101176.50;5097129;28;20031;-76
2022/06/29 05:05:43;;;;;;;14.55;12.77;;;;;;;22.60;100.00;101182.63;5097507;28;20028;-74
2022/06/29 05:08:29;;;;;;;19.02;14.43;;;;;;;22.35;100.00;101173.44;5096684;28;20039;-75
2022/06/29 05:11:17;;;;;;;17.80;14.25;;;;;;;22.65;100.00;101183.19;5082106;28;20032;-76
2022/06/29 05:14:03;;;;;;;17.45;13.60;;;;;;;22.70;100.00;101175.75;5097276;28;20074;-75
2022/06/29 05:16:49;;;;;;;15.25;13.65;;;;;;;22.65;100.00;101175.19;5082841;28;20023;-75
2022/06/29 05:19:35;;;;;;;17.05;14.63;;;;;;;22.65;100.00;101175.19;5096891;28;20034;-75
2022/06/29 05:22:20;;;;;;;17.83;15.13;;;;;;;22.84;100.00;101167.78;5082087;28;20399;-75
2022/06/29 05:25:06;;;;;;;19.27;15.20;;;;;;;22.85;100.00;101166.81;5094504;28;20024;-75
2022/06/29 05:27:52;;;;;;;16.08;13.48;;;;;;;23.12;100.00;101172.28;5096720;28;20032;-74
2022/06/29 05:30:38;;;;;;;15.32;13.18;;;;;;;22.94;100.00;101176.06;5094654;28;20016;-75
2022/06/29 05:33:24;;;;;;;17.00;14.15;;;;;;;23.08;100.00;101171.59;5094962;28;20035;-75
2022/06/29 05:36:10;;;;;;;15.93;14.23;;;;;;;23.15;100.00;101166.75;5096757;28;20074;-74
2022/06/29 05:38:56;;;;;;;16.17;13.45;;;;;;;23.43;100.00;101164.94;5096019;28;20024;-76
2022/06/29 05:41:42;;;;;;;15.82;13.05;;;;;;;23.60;100.00;101160.34;5096029;28;20330;-75
2022/06/29 05:44:28;;;;;;;16.90;13.93;;;;;;;23.35;100.00;101185.13;5096143;28;20031;-75
2022/06/29 05:47:14;;;;;;;18.15;13.80;;;;;;;23.85;100.00;101171.16;5096062;28;20024;-76
2022/06/29 05:50:00;;;;;;;16.58;14.43;;;;;;;23.76;100.00;101174.44;5095590;28;20036;-75
2022/06/29 05:52:47;;;;;;;22.83;14.48;;;;;;;24.05;100.00;101178.78;5080799;28;20460;-75
2022/06/29 05:55:32;;;;;;;19.25;14.45;;;;;;;23.91;100.00;101179.69;5095864;28;20452;-75
2022/06/29 05:58:19;;;;;;;19.75;14.52;;;;;;;23.50;100.00;101172.59;5096390;28;20110;-75
2022/06/29 06:01:08;;;;;;;17.83;15.38;;;;;;;23.71;100.00;101169.38;5080808;28;20082;-76
2022/06/29 06:03:54;;;;;;;24.52;14.75;;;;;;;24.25;100.00;101167.63;5094890;28;20043;-75
2022/06/29 06:06:40;;;;;;;17.85;14.05;;;;;;;23.97;100.00;101173.09;5096435;28;20122;-75
2022/06/29 06:09:27;;;;;;;16.20;14.05;;;;;;;24.33;100.00;101168.84;5089790;28;20036;-71
2022/06/29 06:12:12;;;;;;;19.17;13.70;;;;;;;24.58;100.00;101173.38;5077468;28;20035;-73
2022/06/29 06:14:59;;;;;;;17.63;14.43;;;;;;;23.62;100.00;101167.31;5079754;28;20069;-71
2022/06/29 06:17:44;;;;;;;15.07;13.57;;;;;;;24.39;100.00;101170.25;5077059;28;20130;-70
2022/06/29 06:20:31;;;;;;;17.13;14.15;;;;;;;24.64;100.00;101168.53;5074185;28;20438;-72
2022/06/29 06:23:17;;;;;;;14.75;12.88;;;;;;;24.99;100.00;101171.44;5061899;28;20054;-71
2022/06/29 06:26:02;;;;;;;17.27;15.45;;;;;;;25.17;100.00;101171.03;5082076;28;20066;-71
2022/06/29 06:28:50;;;;;;;18.08;14.82;;;;;;;24.60;100.00;101169.66;5058804;28;20118;-72
2022/06/29 06:31:36;;;;;;;19.13;14.43;;;;;;;24.45;100.00;101168.03;5071903;28;20032;-70
2022/06/29 06:34:23;;;;;;;16.05;13.43;;;;;;;24.77;100.00;101168.53;5072164;28;20509;-71
2022/06/29 06:37:09;;;;;;;17.02;14.32;;;;;;;24.59;100.00;101169.75;5080190;28;20060;-71
2022/06/29 06:43:08;;;;;;;17.48;15.52;;;;;;;24.88;100.00;101163.28;5077776;28;20028;-72
2022/06/29 06:45:56;;;;;;;16.75;14.38;;;;;;;25.01;100.00;101172.19;5074356;28;20036;-71
2022/06/29 06:48:43;;;;;;;16.52;13.95;;;;;;;25.20;100.00;101177.97;5074158;28;20032;-70
2022/06/29 06:51:29;;;;;;;14.65;12.60;;;;;;;25.43;100.00;101174.56;5063477;28;20108;-72
2022/06/29 06:54:15;;;;;;;16.92;12.45;;;;;;;25.00;100.00;101165.97;5082506;28;20031;-69
2022/06/29 06:57:00;;;;;;;13.65;12.15;;;;;;;25.32;100.00;101169.09;5076875;28;20487;-71
2022/06/29 06:59:46;;;;;;;14.10;12.43;;;;;;;25.61;100.00;101174.09;5070012;28;20115;-70
2022/06/29 07:02:32;;;;;;;14.23;12.25;;;;;;;25.95;100.00;101164.44;5074713;28;20361;-71
2022/06/29 07:05:18;;;;;;;13.57;11.63;;;;;;;25.96;100.00;101163.50;5077773;28;20063;-71
2022/06/29 07:08:04;;;;;;;17.60;12.35;;;;;;;25.95;100.00;101164.44;5074163;28;20021;-70
2022/06/29 07:10:49;;;;;;;13.50;12.10;;;;;;;25.82;100.00;101164.47;5063936;28;20031;-76
2022/06/29 07:13:36;;;;;;;15.85;11.95;;;;;;;26.07;100.00;101152.78;5074918;28;20035;-73
2022/06/29 07:16:21;;;;;;;15.48;12.68;;;;;;;26.08;100.00;101157.22;5072724;28;20044;-72
2022/06/29 07:19:07;;;;;;;13.85;12.45;;;;;;;26.18;100.00;101168.97;5081376;28;20032;-72
2022/06/29 07:21:54;;;;;;;17.75;13.73;;;;;;;26.60;100.00;101166.63;5071677;28;20031;-72
2022/06/29 07:24:44;;;;;;;14.07;12.13;;;;;;;26.77;100.00;101173.41;5076901;28;20127;-72
2022/06/29 07:27:33;;;;;;;16.65;12.27;;;;;;;26.89;100.00;101170.59;5087012;28;20043;-73
2022/06/29 07:30:19;;;;;;;13.82;12.32;;;;;;;27.09;100.00;101166.38;5074072;28;20086;-72
2022/06/29 07:33:08;;;;;;;11.88;10.68;;;;;;;27.15;100.00;101168.56;5078228;28;20035;-74
2022/06/29 07:35:54;;;;;;;13.93;11.05;;;;;;;27.19;100.00;101170.91;5082074;28;20035;-73
2022/06/29 07:38:40;;;;;;;12.05;10.85;;;;;;;27.08;100.00;101170.00;5076170;28;20206;-72
2022/06/29 07:41:26;;;;;;;15.10;10.77;;;;;;;27.40;100.00;101173.72;5079744;28;20464;-73
2022/06/29 07:44:11;;;;;;;15.05;10.73;;;;;;;27.74;100.00;101174.56;5078866;28;20039;-73
2022/06/29 07:46:57;;;;;;;11.00;9.95;;;;;;;27.87;100.00;101169.91;5078923;28;20044;-72
2022/06/29 07:49:43;;;;;;;13.38;10.10;;;;;;;27.81;100.00;101163.19;5059939;28;20047;-73
2022/06/29 07:52:29;;;;;;;11.98;9.43;;;;;;;28.17;100.00;101168.28;5061701;28;20475;-73
2022/06/29 07:55:15;;;;;;;10.70;9.68;;;;;;;28.46;100.00;101172.09;5068988;28;20029;-73
2022/06/29 07:58:00;;;;;;;16.13;10.50;;;;;;;27.92;100.00;101173.13;5079715;28;20107;-72
2022/06/29 08:00:47;;;;;;;11.82;10.63;;;;;;;28.35;100.00;101171.25;5065046;28;20043;-73
2022/06/29 08:03:32;;;;;;;12.07;10.38;;;;;;;29.19;100.00;101177.44;5080389;28;20095;-73
2022/06/29 08:06:18;;;;;;;13.20;10.02;;;;;;;28.51;100.00;101160.91;5080167;28;20664;-74
2022/06/29 08:09:05;;;;;;;11.82;10.27;;;;;;;28.88;100.00;101163.03;5085176;28;20032;-73
2022/06/29 08:11:51;;;;;;;14.55;10.95;;;;;;;29.49;100.00;101180.16;5055181;28;20380;-73
2022/06/29 08:14:37;;;;;;;13.50;10.02;;;;;;;29.29;100.00;101176.50;5078912;28;20448;-74
2022/06/29 08:17:23;;;;;;;15.52;14.00;;;;;;;30.03;100.00;101173.38;5081509;28;20035;-74
2022/06/29 08:20:10;;;;;;;12.10;9.77;;;;;;;29.50;100.00;101179.16;5082446;28;20097;-73
2022/06/29 08:22:56;;;;;;;11.10;10.00;;;;;;;30.74;100.00;101170.28;5082754;28;20046;-75
2022/06/29 08:25:42;;;;;;;10.20;9.20;;;;;;;30.63;100.00;101169.56;5070820;28;20036;-74
2022/06/29 08:28:27;;;;;;;14.05;9.80;;;;;;;30.96;100.00;101175.41;5065274;28;20040;-73
2022/06/29 08:31:13;;;;;;;10.50;8.90;;;;;;;31.14;98.45;101178.22;5078436;28;20448;-73
2022/06/29 08:34:01;;;;;;;12.23;9.05;;;;;;;30.83;99.42;101182.94;5081047;28;20032;-73
2022/06/29 08:36:47;;;;;;;13.98;8.95;;;;;;;30.52;98.34;101178.69;5072183;28;20400;-74
2022/06/29 08:39:33;;;;;;;10.20;8.40;;;;;;;30.86;95.43;101177.25;5075622;28;20031;-74
2022/06/29 08:42:23;;;;;;;11.27;8.43;;;;;;;31.45;91.11;101173.44;5077174;28;20029;-75
2022/06/29 08:45:11;;;;;;;9.68;8.52;;;;;;;31.81;84.77;101165.25;5061158;28;20027;-74
2022/06/29 08:47:57;;;;;;;10.52;8.18;;;;;;;31.64;86.50;101178.72;5081983;28;20488;-74
2022/06/29 08:50:53;;;;;;;10.15;7.97;;;;;;;32.20;79.29;101177.56;5080245;28;20380;-74
2022/06/29 08:53:40;;;;;;;13.57;8.35;;;;;;;32.23;79.76;101170.97;5080464;28;20524;-73
2022/06/29 08:56:26;;;;;;;8.98;8.15;;;;;;;32.41;76.74;101170.00;5080347;28;20050;-74
2022/06/29 08:59:13;;;;;;;23.52;13.63;;;;;;;32.81;67.91;101170.38;5074695;28;20020;-75
2022/06/29 09:01:58;;;;;;;12.25;9.35;;;;;;;32.65;65.55;101178.38;5084759;28;20124;-73
2022/06/29 09:04:44;;;;;;;10.90;7.55;;;;;;;32.27;66.02;101172.38;5078355;28;20066;-74
2022/06/29 09:07:30;;;;;;;31.58;21.27;;;;;;;32.93;58.84;101170.97;5075540;28;20039;-74
2022/06/29 09:10:19;;;;;;;9.65;6.13;;;;;;;33.09;52.76;101166.50;5059962;28;20114;-74
2022/06/29 09:13:05;;;;;;;8.75;6.45;;;;;;;33.16;51.52;101172.16;5079908;28;20051;-74
2022/06/29 09:15:58;;;;;;;7.28;5.78;;;;;;;33.01;48.16;101179.16;5074115;28;20096;-74
2022/06/29 09:18:44;;;;;;;8.63;5.30;;;;;;;33.03;46.67;101179.88;5075386;28;20107;-73
2022/06/29 09:21:46;;;;;;;6.45;5.75;;;;;;;33.28;45.98;101179.88;5079896;28;20040;-74
2022/06/29 09:24:33;;;;;;;8.70;5.93;;;;;;;33.03;47.06;101177.16;5073421;28;20550;-73
2022/06/29 09:27:18;;;;;;;8.00;5.15;;;;;;;33.35;43.06;101169.25;5073651;28;20024;-72
2022/06/29 09:30:21;;;;;;;6.88;5.35;;;;;;;32.96;43.25;101167.94;5075809;28;20107;-74
2022/06/29 09:33:10;;;;;;;8.63;5.65;;;;;;;32.74;44.91;101169.28;5076752;28;20040;-75
2022/06/29 09:36:10;;;;;;;6.90;4.82;;;;;;;33.02;45.50;101170.03;5078884;28;20058;-75
2022/06/29 09:38:55;;;;;;;8.95;5.28;;;;;;;33.32;46.89;101166.84;5080013;28;20064;-76
2022/06/29 09:41:41;;;;;;;7.50;5.53;;;;;;;33.53;48.41;101161.84;5081210;28;20440;-75
2022/06/29 09:44:27;;;;;;;9.52;5.78;;;;;;;33.28;47.28;101160.84;5075339;28;20036;-76
2022/06/29 09:47:16;;;;;;;11.25;5.13;;;;;;;33.06;46.94;101150.53;5064423;28;20024;-75
2022/06/29 09:50:04;;;;;;;6.65;5.35;;;;;;;33.26;46.65;101149.28;5079379;28;20036;-72
2022/06/29 09:52:50;;;;;;;8.38;5.10;;;;;;;33.91;45.98;101148.59;5077580;28;20093;-77
2022/06/29 09:55:36;;;;;;;8.52;5.40;;;;;;;33.15;45.55;101151.44;5078026;28;20095;-76
2022/06/29 09:58:32;;;;;;;6.78;4.43;;;;;;;33.11;43.41;101148.16;5080609;28;20056;-75
2022/06/29 10:04:24;;;;;;;7.07;4.55;;;;;;;32.83;42.94;101140.38;5072075;28;20120;-76
2022/06/29 10:07:11;;;;;;;7.32;4.93;;;;;;;32.54;44.97;101139.78;5072823;28;20025;-75
2022/06/29 10:09:59;;;;;;;9.77;5.80;;;;;;;32.87;42.97;101134.44;5077443;28;20035;-76
2022/06/29 10:16:35;;;;;;;8.70;4.95;;;;;;;33.11;43.88;101131.03;5078986;28;20342;-76
2022/06/29 10:19:35;;;;;;;12.25;5.35;;;;;;;33.01;44.71;101136.59;5054444;28;20182;-74
2022/06/29 10:22:21;;;;;;;11.52;5.68;;;;;;;33.23;43.59;101132.47;5078411;28;20093;-75
2022/06/29 10:25:10;;;;;;;6.45;5.35;;;;;;;33.46;43.17;101130.88;5063276;28;20020;-76
2022/06/29 10:28:20;;;;;;;8.27;4.97;;;;;;;33.43;45.15;101139.41;5072868;28;20051;-76
2022/06/29 10:31:06;;;;;;;10.50;5.38;;;;;;;33.38;45.48;101134.44;5076124;28;20056;-75
2022/06/29 10:33:52;;;;;;;8.77;5.50;;;;;;;33.50;45.47;101143.13;5081850;28;20696;-76
2022/06/29 10:37:02;;;;;;;5.70;4.93;;;;;;;33.40;44.64;101137.00;5074367;28;20032;-75
2022/06/29 10:39:48;;;;;;;8.80;5.72;;;;;;;33.76;41.90;101133.91;5082683;28;20016;-76
2022/06/29 10:45:46;;;;;;;6.53;5.20;;;;;;;33.40;41.94;101126.13;5076754;28;20393;-71
2022/06/29 10:48:32;;;;;;;9.40;5.53;;;;;;;33.66;42.72;101135.91;5061542;28;20031;-71
2022/06/29 10:51:19;;;;;;;11.02;5.93;;;;;;;33.80;41.80;101132.56;5064388;28;20028;-72
2022/06/29 10:54:22;;;;;;;11.82;5.82;;;;;;;33.89;41.61;101122.59;5074172;28;20039;-72
2022/06/29 10:57:08;;;;;;;8.75;5.00;;;;;;;33.86;40.55;101117.47;5073141;28;20024;-72
2022/06/29 10:59:53;;;;;;;9.77;5.00;;;;;;;33.77;40.66;101118.44;5074597;28;20067;-73
2022/06/29 11:02:42;;;;;;;7.78;5.20;;;;;;;33.92;41.15;101119.53;5058252;28;20056;-71
2022/06/29 11:05:28;;;;;;;8.05;5.00;;;;;;;34.45;40.43;101119.97;5076966;28;20131;-72
2022/06/29 11:17:44;;;;;;;7.35;4.40;;;;;;;34.17;36.54;101107.66;5087256;28;20040;-71
2022/06/29 11:20:33;;;;;;;12.48;4.60;;;;;;;33.92;38.49;101095.94;5082840;28;20035;-71
2022/06/29 11:23:22;;;;;;;11.88;4.93;;;;;;;34.61;36.67;101106.34;5084338;28;20032;-73
2022/06/29 11:26:08;;;;;;;13.60;6.38;;;;;;;34.61;36.54;101107.22;5075034;28;20075;-71
2022/06/29 11:28:54;;;;;;;16.90;6.45;;;;;;;34.94;35.40;101106.16;5080949;28;20093;-72
2022/06/29 11:31:40;;;;;;;8.43;4.60;;;;;;;34.54;35.91;101097.16;5078891;28;20028;-70
2022/06/29 11:34:26;;;;;;;8.95;4.60;;;;;;;34.90;35.94;101095.78;5083763;28;20031;-71
2022/06/29 11:37:12;;;;;;;7.07;4.15;;;;;;;34.70;35.71;101089.84;5083393;28;20024;-71
2022/06/29 11:39:58;;;;;;;9.63;4.20;;;;;;;35.22;35.95;101082.03;5077838;28;20093;-70
2022/06/29 11:45:49;;;;;;;7.57;4.47;;;;;;;34.64;36.28;101067.88;5081702;28;20028;-71
2022/06/29 11:49:33;;;;;;;9.27;4.43;;;;;;;34.52;36.53;101066.56;5087307;28;20028;-71
2022/06/29 11:51:56;;;;;;;5.43;3.92;;;;;;;35.19;34.86;101061.44;5085978;28;20410;-72
2022/06/29 11:54:47;;;;;;;7.95;4.30;;;;;;;34.39;35.48;101061.63;5092642;28;20025;-71
2022/06/29 11:57:33;;;;;;;10.32;4.45;;;;;;;35.18;36.58;101051.59;5086511;28;20033;-71
2022/06/29 12:00:24;;;;;;;12.90;10.77;;;;;;;35.40;36.21;101049.13;5088770;28;20036;-70
2022/06/29 12:03:14;;;;;;;7.10;4.32;;;;;;;35.59;35.36;101051.41;5081334;28;20113;-70
2022/06/29 12:06:00;;;;;;;7.18;4.30;;;;;;;35.39;35.50;101039.25;5079732;28;20040;-71
2022/06/29 12:08:46;;;;;;;6.15;3.92;;;;;;;34.95;35.71;101041.59;5075966;28;20028;-71
2022/06/29 12:11:31;;;;;;;7.47;4.63;;;;;;;35.56;36.09;101038.13;5063699;28;20393;-70
2022/06/29 12:14:17;;;;;;;8.05;4.50;;;;;;;35.66;35.51;101036.00;5075933;28;20051;-71
2022/06/29 12:17:05;;;;;;;6.95;4.18;;;;;;;35.48;35.81;101030.88;5064813;28;20047;-70
2022/06/29 12:19:50;;;;;;;7.70;4.50;;;;;;;35.21;35.05;101023.13;5074361;28;20032;-71
2022/06/29 12:22:36;;;;;;;21.23;15.63;;;;;;;34.98;36.47;101017.63;5058694;28;20047;-71
2022/06/29 12:25:22;;;;;;;7.20;5.10;;;;;;;35.89;35.38;101021.41;5068202;28;20032;-71
2022/06/29 12:28:08;;;;;;;9.00;4.30;;;;;;;35.23;36.15;101021.91;5077506;28;20107;-71
2022/06/29 12:30:54;;;;;;;12.45;4.43;;;;;;;36.21;35.49;101021.13;5060835;28;20062;-71
2022/06/29 12:33:40;;;;;;;7.82;4.40;;;;;;;35.85;35.21;101025.53;5080215;28;20031;-70
2022/06/29 12:36:26;;;;;;;6.68;4.50;;;;;;;35.55;34.96;101022.81;5078388;28;20038;-72
2022/06/29 12:39:11;;;;;;;8.05;4.30;;;;;;;35.27;35.00;101018.84;5070708;28;20020;-70
2022/06/29 12:41:57;;;;;;;10.45;4.22;;;;;;;35.55;35.48;101011.91;5084643;28;20372;-71
2022/06/29 12:44:43;;;;;;;7.90;4.38;;;;;;;35.34;36.59;101006.22;5077614;28;20050;-71
2022/06/29 12:47:29;;;;;;;6.53;4.20;;;;;;;35.34;35.52;101000.75;5075296;28;20062;-72
2022/06/29 12:50:14;;;;;;;5.78;4.15;;;;;;;35.40;35.65;101002.78;5075339;28;20094;-72
2022/06/29 12:53:00;;;;;;;8.15;4.57;;;;;;;35.25;35.67;101000.78;5069937;28;20047;-70
2022/06/29 12:55:46;;;;;;;6.65;4.20;;;;;;;35.22;35.80;100992.13;5056597;28;20953;-71
2022/06/29 12:58:32;;;;;;;8.20;6.05;;;;;;;35.62;35.53;100986.44;5078218;28;20036;-71
2022/06/29 13:01:18;;;;;;;9.20;4.68;;;;;;;35.66;35.67;100982.34;5082506;28;20032;-71
2022/06/29 13:04:04;;;;;;;5.78;4.55;;;;;;;35.16;36.42;100979.22;5082371;28;20120;-70
2022/06/29 13:06:49;;;;;;;6.13;4.55;;;;;;;35.73;35.63;100985.19;5081110;28;20028;-71
2022/06/29 13:09:35;;;;;;;6.07;4.22;;;;;;;35.83;35.00;100977.66;5058173;28;20039;-73
2022/06/29 13:12:22;;;;;;;6.38;4.53;;;;;;;35.25;36.06;100970.81;5059899;28;20402;-71
2022/06/29 13:15:08;;;;;;;7.88;3.83;;;;;;;35.39;35.05;100968.41;5081620;28;20035;-71